sensor_id;sensor_type;location;lat;lon;timestamp;pressure;altitude;pressure_sealevel;temperature;humidity
74680;BME280;63211;48.548;2.704;2024-03-02T00:00:07;99148.81;;;18.26;54.48
74680;BME280;63211;48.548;2.704;2024-03-02T00:02:39;99155.97;;;18.37;54.42
74680;BME280;63211;48.548;2.704;2024-03-02T00:05:11;99145.00;;;18.27;54.22
74680;BME280;63211;48.548;2.704;2024-03-02T00:07:39;99151.28;;;18.32;53.99
74680;BME280;63211;48.548;2.704;2024-03-02T00:10:09;99166.56;;;18.33;53.99
74680;BME280;63211;48.548;2.704;2024-03-02T00:12:36;99162.19;;;18.32;53.74
74680;BME280;63211;48.548;2.704;2024-03-02T00:15:05;99145.22;;;18.20;54.11
74680;BME280;63211;48.548;2.704;2024-03-02T00:17:33;99167.91;;;18.31;54.42
74680;BME280;63211;48.548;2.704;2024-03-02T00:20:00;99026.91;;;17.32;53.94
74680;BME280;63211;48.548;2.704;2024-03-02T00:22:30;99172.00;;;18.28;54.03
74680;BME280;63211;48.548;2.704;2024-03-02T00:24:57;99170.09;;;18.29;54.43
74680;BME280;63211;48.548;2.704;2024-03-02T00:27:24;99142.41;;;18.10;54.19
74680;BME280;63211;48.548;2.704;2024-03-02T00:29:51;99179.88;;;18.30;54.08
74680;BME280;63211;48.548;2.704;2024-03-02T00:32:17;99181.25;;;18.32;54.50
74680;BME280;63211;48.548;2.704;2024-03-02T00:34:44;99168.72;;;18.31;55.04
74680;BME280;63211;48.548;2.704;2024-03-02T00:37:11;99176.13;;;18.36;54.50
74680;BME280;63211;48.548;2.704;2024-03-02T00:39:39;99169.59;;;18.37;54.50
74680;BME280;63211;48.548;2.704;2024-03-02T00:42:06;99169.59;;;18.37;54.02
74680;BME280;63211;48.548;2.704;2024-03-02T00:44:33;99184.84;;;18.38;54.11
74680;BME280;63211;48.548;2.704;2024-03-02T00:47:01;99184.84;;;18.38;53.95
74680;BME280;63211;48.548;2.704;2024-03-02T00:49:28;99162.19;;;18.27;53.88
74680;BME280;63211;48.548;2.704;2024-03-02T00:51:55;99183.72;;;18.34;53.85
74680;BME280;63211;48.548;2.704;2024-03-02T00:54:23;99176.34;;;18.29;53.87
74680;BME280;63211;48.548;2.704;2024-03-02T00:56:52;99189.69;;;18.31;53.70
74680;BME280;63211;48.548;2.704;2024-03-02T00:59:20;99182.84;;;18.23;53.41
74680;BME280;63211;48.548;2.704;2024-03-02T01:01:47;99191.06;;;18.28;53.72
74680;BME280;63211;48.548;2.704;2024-03-02T01:04:14;99193.22;;;18.26;53.82
74680;BME280;63211;48.548;2.704;2024-03-02T01:06:41;99187.78;;;18.26;53.48
74680;BME280;63211;48.548;2.704;2024-03-02T01:09:08;99196.78;;;18.27;53.39
74680;BME280;63211;48.548;2.704;2024-03-02T01:11:35;99192.69;;;18.29;54.07
74680;BME280;63211;48.548;2.704;2024-03-02T01:14:03;99191.59;;;18.30;53.82
74680;BME280;63211;48.548;2.704;2024-03-02T01:16:30;99191.34;;;18.32;54.02
74680;BME280;63211;48.548;2.704;2024-03-02T01:18:56;99184.53;;;18.34;54.72
74680;BME280;63211;48.548;2.704;2024-03-02T01:21:23;99189.75;;;18.36;54.87
74680;BME280;63211;48.548;2.704;2024-03-02T01:23:50;99186.75;;;18.37;54.85
74680;BME280;63211;48.548;2.704;2024-03-02T01:26:16;99182.91;;;18.33;54.27
74680;BME280;63211;48.548;2.704;2024-03-02T01:28:43;99181.53;;;18.31;53.83
74680;BME280;63211;48.548;2.704;2024-03-02T01:31:11;99185.94;;;18.37;53.44
74680;BME280;63211;48.548;2.704;2024-03-02T01:33:38;99194.09;;;18.37;53.73
74680;BME280;63211;48.548;2.704;2024-03-02T01:36:05;99181.53;;;18.31;53.48
74680;BME280;63211;48.548;2.704;2024-03-02T01:38:33;99190.00;;;18.34;53.22
74680;BME280;63211;48.548;2.704;2024-03-02T01:41:00;99188.63;;;18.32;52.72
74680;BME280;63211;48.548;2.704;2024-03-02T01:43:27;99176.06;;;18.26;52.85
74680;BME280;63211;48.548;2.704;2024-03-02T01:45:54;99179.88;;;18.30;53.24
74680;BME280;63211;48.548;2.704;2024-03-02T01:48:23;99174.97;;;18.27;53.44
74680;BME280;63211;48.548;2.704;2024-03-02T01:50:50;99126.84;;;18.00;52.94
74680;BME280;63211;48.548;2.704;2024-03-02T01:53:16;99170.09;;;18.29;53.42
74680;BME280;63211;48.548;2.704;2024-03-02T01:55:44;99164.66;;;18.29;53.40
74680;BME280;63211;48.548;2.704;2024-03-02T01:58:10;99157.56;;;18.28;53.77
74680;BME280;63211;48.548;2.704;2024-03-02T02:00:37;99163.28;;;18.31;54.10
74680;BME280;63211;48.548;2.704;2024-03-02T02:03:04;99162.75;;;18.34;54.63
74680;BME280;63211;48.548;2.704;2024-03-02T02:05:32;99156.78;;;18.37;54.20
74680;BME280;63211;48.548;2.704;2024-03-02T02:07:58;99160.88;;;18.40;54.39
74680;BME280;63211;48.548;2.704;2024-03-02T02:10:25;99156.25;;;18.40;54.34
74680;BME280;63211;48.548;2.704;2024-03-02T02:12:51;99147.78;;;18.37;53.91
74680;BME280;63211;48.548;2.704;2024-03-02T02:15:22;99144.81;;;18.38;53.41
74680;BME280;63211;48.548;2.704;2024-03-02T02:17:49;99149.44;;;18.38;52.96
74680;BME280;63211;48.548;2.704;2024-03-02T02:20:16;99136.06;;;18.36;53.05
74680;BME280;63211;48.548;2.704;2024-03-02T02:22:54;99146.66;;;18.33;52.64
74680;BME280;63211;48.548;2.704;2024-03-02T02:25:21;99145.59;;;18.34;52.76
74680;BME280;63211;48.548;2.704;2024-03-02T02:27:47;99145.84;;;18.32;53.03
74680;BME280;63211;48.548;2.704;2024-03-02T02:30:18;99137.09;;;18.25;52.69
74680;BME280;63211;48.548;2.704;2024-03-02T02:32:45;99137.41;;;18.29;53.07
74680;BME280;63211;48.548;2.704;2024-03-02T02:35:11;99138.19;;;18.29;52.93
74680;BME280;63211;48.548;2.704;2024-03-02T02:37:39;99130.31;;;18.28;52.79
74680;BME280;63211;48.548;2.704;2024-03-02T02:40:08;99126.50;;;18.29;52.65
74680;BME280;63211;48.548;2.704;2024-03-02T02:42:34;99118.84;;;18.26;53.25
74680;BME280;63211;48.548;2.704;2024-03-02T02:45:01;99132.53;;;18.36;54.82
74680;BME280;63211;48.548;2.704;2024-03-02T02:47:28;99126.81;;;18.37;54.85
74680;BME280;63211;48.548;2.704;2024-03-02T02:49:55;99109.59;;;18.32;54.92
74680;BME280;63211;48.548;2.704;2024-03-02T02:52:22;99114.94;;;18.59;54.78
74680;BME280;63211;48.548;2.704;2024-03-02T02:54:48;99116.91;;;18.63;54.17
74680;BME280;63211;48.548;2.704;2024-03-02T02:57:16;99111.97;;;18.60;52.73
74680;BME280;63211;48.548;2.704;2024-03-02T02:59:43;99105.94;;;18.58;52.53
74680;BME280;63211;48.548;2.704;2024-03-02T03:02:09;99098.84;;;18.57;52.58
74680;BME280;63211;48.548;2.704;2024-03-02T03:04:36;99082.47;;;18.47;52.50
74680;BME280;63211;48.548;2.704;2024-03-02T03:07:03;99099.38;;;18.54;52.76
74680;BME280;63211;48.548;2.704;2024-03-02T03:09:29;99102.34;;;18.52;52.65
74680;BME280;63211;48.548;2.704;2024-03-02T03:11:56;99102.63;;;18.51;52.36
74680;BME280;63211;48.548;2.704;2024-03-02T03:14:24;99088.69;;;18.42;52.35
74680;BME280;63211;48.548;2.704;2024-03-02T03:16:50;99087.34;;;18.45;52.55
74680;BME280;63211;48.548;2.704;2024-03-02T03:19:17;99084.59;;;18.40;52.72
74680;BME280;63211;48.548;2.704;2024-03-02T03:21:43;99083.25;;;18.42;52.46
74680;BME280;63211;48.548;2.704;2024-03-02T03:24:10;99085.97;;;18.42;51.76
74680;BME280;63211;48.548;2.704;2024-03-02T03:26:36;99083.25;;;18.42;51.47
74680;BME280;63211;48.548;2.704;2024-03-02T03:29:03;99080.56;;;18.47;51.66
74680;BME280;63211;48.548;2.704;2024-03-02T03:31:31;99073.19;;;18.53;52.18
74680;BME280;63211;48.548;2.704;2024-03-02T03:33:58;99078.44;;;18.60;52.20
74680;BME280;63211;48.548;2.704;2024-03-02T03:36:24;99080.09;;;18.61;52.46
74680;BME280;63211;48.548;2.704;2024-03-02T03:38:51;99073.28;;;18.63;52.43
74680;BME280;63211;48.548;2.704;2024-03-02T03:41:17;99079.81;;;18.62;52.41
74680;BME280;63211;48.548;2.704;2024-03-02T03:43:44;99063.94;;;18.54;52.09
74680;BME280;63211;48.548;2.704;2024-03-02T03:46:10;99078.69;;;18.58;51.95
74680;BME280;63211;48.548;2.704;2024-03-02T03:48:38;99075.41;;;18.56;51.47
74680;BME280;63211;48.548;2.704;2024-03-02T03:51:05;99019.38;;;18.18;51.11
74680;BME280;63211;48.548;2.704;2024-03-02T03:53:31;99074.84;;;18.49;51.23
74680;BME280;63211;48.548;2.704;2024-03-02T03:55:58;99081.38;;;18.48;51.76
74680;BME280;63211;48.548;2.704;2024-03-02T03:58:24;99081.63;;;18.46;52.07
74680;BME280;63211;48.548;2.704;2024-03-02T04:00:51;99075.38;;;18.46;51.92
74680;BME280;63211;48.548;2.704;2024-03-02T04:03:17;99076.44;;;18.45;51.63
74680;BME280;63211;48.548;2.704;2024-03-02T04:05:45;99081.13;;;18.49;51.75
74680;BME280;63211;48.548;2.704;2024-03-02T04:08:12;99078.09;;;18.51;51.84
74680;BME280;63211;48.548;2.704;2024-03-02T04:10:38;99083.53;;;18.51;51.82
74680;BME280;63211;48.548;2.704;2024-03-02T04:13:07;99084.09;;;18.53;51.30
74680;BME280;63211;48.548;2.704;2024-03-02T04:15:34;99082.19;;;18.53;50.94
74680;BME280;63211;48.548;2.704;2024-03-02T04:18:00;99090.09;;;18.55;50.78
74680;BME280;63211;48.548;2.704;2024-03-02T04:20:27;99086.28;;;18.56;50.79
74680;BME280;63211;48.548;2.704;2024-03-02T04:22:55;99077.28;;;18.50;51.03
74680;BME280;63211;48.548;2.704;2024-03-02T04:25:21;99085.22;;;18.57;51.24
74680;BME280;63211;48.548;2.704;2024-03-02T04:27:48;99084.72;;;18.60;51.35
74680;BME280;63211;48.548;2.704;2024-03-02T04:30:14;99084.13;;;18.58;51.50
74680;BME280;63211;48.548;2.704;2024-03-02T04:32:41;99089.84;;;18.57;51.55
74680;BME280;63211;48.548;2.704;2024-03-02T04:35:11;99085.19;;;18.52;51.10
74680;BME280;63211;48.548;2.704;2024-03-02T04:37:38;99081.63;;;18.51;51.56
74680;BME280;63211;48.548;2.704;2024-03-02T04:40:07;99079.72;;;18.47;51.41
74680;BME280;63211;48.548;2.704;2024-03-02T04:42:34;99061.72;;;18.41;51.57
74680;BME280;63211;48.548;2.704;2024-03-02T04:45:01;99079.44;;;18.43;51.23
74680;BME280;63211;48.548;2.704;2024-03-02T04:47:28;99077.53;;;18.44;51.08
74680;BME280;63211;48.548;2.704;2024-03-02T04:49:55;99077.56;;;18.49;51.00
74680;BME280;63211;48.548;2.704;2024-03-02T04:52:21;99075.38;;;18.51;51.05
74680;BME280;63211;48.548;2.704;2024-03-02T04:54:48;99064.75;;;18.54;51.45
74680;BME280;63211;48.548;2.704;2024-03-02T04:57:33;99061.28;;;18.59;51.26
74680;BME280;63211;48.548;2.704;2024-03-02T05:00:00;99058.78;;;18.58;51.40
74680;BME280;63211;48.548;2.704;2024-03-02T05:02:26;99047.28;;;18.50;51.23
74680;BME280;63211;48.548;2.704;2024-03-02T05:04:52;99061.81;;;18.61;50.89
74680;BME280;63211;48.548;2.704;2024-03-02T05:07:18;99052.78;;;18.55;50.61
74680;BME280;63211;48.548;2.704;2024-03-02T05:09:45;99054.69;;;18.55;50.40
74680;BME280;63211;48.548;2.704;2024-03-02T05:12:13;99054.94;;;18.53;50.44
74680;BME280;63211;48.548;2.704;2024-03-02T05:15:23;99052.75;;;18.50;50.60
74680;BME280;63211;48.548;2.704;2024-03-02T05:17:49;99054.66;;;18.50;51.08
74680;BME280;63211;48.548;2.704;2024-03-02T05:20:16;99055.75;;;18.49;50.96
74680;BME280;63211;48.548;2.704;2024-03-02T05:22:43;99066.94;;;18.47;50.74
74680;BME280;63211;48.548;2.704;2024-03-02T05:25:09;99047.28;;;18.45;50.82
74680;BME280;63211;48.548;2.704;2024-03-02T05:27:36;99047.84;;;18.47;50.97
74680;BME280;63211;48.548;2.704;2024-03-02T05:30:03;99048.41;;;18.49;50.90
74680;BME280;63211;48.548;2.704;2024-03-02T05:32:33;99043.47;;;18.46;50.63
74680;BME280;63211;48.548;2.704;2024-03-02T05:34:59;99042.13;;;18.49;50.62
74680;BME280;63211;48.548;2.704;2024-03-02T05:37:26;99032.06;;;18.49;50.14
74680;BME280;63211;48.548;2.704;2024-03-02T05:39:52;99030.69;;;18.52;49.98
74680;BME280;63211;48.548;2.704;2024-03-02T05:42:19;99024.44;;;18.57;50.47
74680;BME280;63211;48.548;2.704;2024-03-02T05:44:46;99018.97;;;18.57;50.46
74680;BME280;63211;48.548;2.704;2024-03-02T05:47:12;99028.28;;;18.61;50.46
74680;BME280;63211;48.548;2.704;2024-03-02T05:49:40;99023.94;;;18.60;50.68
74680;BME280;63211;48.548;2.704;2024-03-02T05:52:08;99036.75;;;18.59;50.72
74680;BME280;63211;48.548;2.704;2024-03-02T05:54:34;99027.16;;;18.57;50.69
74680;BME280;63211;48.548;2.704;2024-03-02T05:57:01;99029.59;;;18.53;50.77
74680;BME280;63211;48.548;2.704;2024-03-02T05:59:42;99031.25;;;18.49;50.72
74680;BME280;63211;48.548;2.704;2024-03-02T06:02:08;99002.47;;;18.16;51.08
74680;BME280;63211;48.548;2.704;2024-03-02T06:04:35;99034.19;;;18.42;51.05
74680;BME280;63211;48.548;2.704;2024-03-02T06:07:03;99036.09;;;18.42;51.04
74680;BME280;63211;48.548;2.704;2024-03-02T06:09:30;99019.19;;;18.40;50.88
74680;BME280;63211;48.548;2.704;2024-03-02T06:11:57;99025.47;;;18.40;50.80
74680;BME280;63211;48.548;2.704;2024-03-02T06:14:23;99017.59;;;18.44;50.60
74680;BME280;63211;48.548;2.704;2024-03-02T06:16:50;99015.16;;;18.47;50.76
74680;BME280;63211;48.548;2.704;2024-03-02T06:19:16;98949.88;;;18.10;50.72
74680;BME280;63211;48.548;2.704;2024-03-02T06:21:43;99014.88;;;18.54;50.62
74680;BME280;63211;48.548;2.704;2024-03-02T06:24:11;99011.06;;;18.55;50.53
74680;BME280;63211;48.548;2.704;2024-03-02T06:26:37;99018.16;;;18.56;50.08
74680;BME280;63211;48.548;2.704;2024-03-02T06:29:04;99014.63;;;18.55;49.79
74680;BME280;63211;48.548;2.704;2024-03-02T06:31:31;99020.84;;;18.51;49.81
74680;BME280;63211;48.548;2.704;2024-03-02T06:33:57;99025.50;;;18.50;49.75
74680;BME280;63211;48.548;2.704;2024-03-02T06:36:24;99020.34;;;18.49;50.09
74680;BME280;63211;48.548;2.704;2024-03-02T06:38:51;99015.97;;;18.53;50.33
74680;BME280;63211;48.548;2.704;2024-03-02T06:41:19;99015.16;;;18.52;50.33
74680;BME280;63211;48.548;2.704;2024-03-02T06:43:45;99013.50;;;18.51;50.26
74680;BME280;63211;48.548;2.704;2024-03-02T06:46:12;98997.97;;;18.47;50.10
74680;BME280;63211;48.548;2.704;2024-03-02T06:48:40;99011.88;;;18.45;50.38
74680;BME280;63211;48.548;2.704;2024-03-02T06:51:06;99009.41;;;18.44;50.29
74680;BME280;63211;48.548;2.704;2024-03-02T06:53:33;98997.94;;;18.42;50.53
74680;BME280;63211;48.548;2.704;2024-03-02T06:56:00;98998.22;;;18.40;50.42
74680;BME280;63211;48.548;2.704;2024-03-02T06:58:27;99009.94;;;18.41;50.44
74680;BME280;63211;48.548;2.704;2024-03-02T07:00:54;99001.75;;;18.41;50.22
74680;BME280;63211;48.548;2.704;2024-03-02T07:03:21;99012.41;;;18.42;50.20
74680;BME280;63211;48.548;2.704;2024-03-02T07:05:47;98999.63;;;18.48;50.23
74680;BME280;63211;48.548;2.704;2024-03-02T07:08:14;99005.06;;;18.53;50.10
74680;BME280;63211;48.548;2.704;2024-03-02T07:10:41;99003.44;;;18.57;50.23
74680;BME280;63211;48.548;2.704;2024-03-02T07:13:07;98998.00;;;18.57;50.38
74680;BME280;63211;48.548;2.704;2024-03-02T07:15:35;98990.63;;;18.58;50.16
74680;BME280;63211;48.548;2.704;2024-03-02T07:18:25;98999.91;;;18.57;49.87
74680;BME280;63211;48.548;2.704;2024-03-02T07:20:51;98992.53;;;18.52;49.56
74680;BME280;63211;48.548;2.704;2024-03-02T07:23:18;98989.78;;;18.52;49.46
74680;BME280;63211;48.548;2.704;2024-03-02T07:25:45;98990.88;;;18.51;49.53
74680;BME280;63211;48.548;2.704;2024-03-02T07:28:12;98988.44;;;18.49;49.68
74680;BME280;63211;48.548;2.704;2024-03-02T07:30:41;98979.44;;;18.44;49.74
74680;BME280;63211;48.548;2.704;2024-03-02T07:33:07;98999.88;;;18.46;49.91
74680;BME280;63211;48.548;2.704;2024-03-02T07:35:34;98999.06;;;18.46;49.93
74680;BME280;63211;48.548;2.704;2024-03-02T07:38:01;99000.72;;;18.47;49.75
74680;BME280;63211;48.548;2.704;2024-03-02T07:40:27;98985.41;;;18.41;49.84
74680;BME280;63211;48.548;2.704;2024-03-02T07:42:54;98995.00;;;18.48;49.77
74680;BME280;63211;48.548;2.704;2024-03-02T07:45:21;98988.44;;;18.49;49.84
74680;BME280;63211;48.548;2.704;2024-03-02T07:47:49;98984.34;;;18.42;49.87
74680;BME280;63211;48.548;2.704;2024-03-02T07:50:16;98987.06;;;18.52;49.32
74680;BME280;63211;48.548;2.704;2024-03-02T07:52:42;98984.09;;;18.53;49.33
74680;BME280;63211;48.548;2.704;2024-03-02T07:55:09;98983.25;;;18.53;49.40
74680;BME280;63211;48.548;2.704;2024-03-02T07:57:35;98987.09;;;18.57;49.71
74680;BME280;63211;48.548;2.704;2024-03-02T08:00:02;98986.81;;;18.59;49.67
74680;BME280;63211;48.548;2.704;2024-03-02T08:02:29;98986.81;;;18.59;49.76
74680;BME280;63211;48.548;2.704;2024-03-02T08:04:57;98992.28;;;18.59;49.66
74680;BME280;63211;48.548;2.704;2024-03-02T08:07:24;98986.28;;;18.57;49.71
74680;BME280;63211;48.548;2.704;2024-03-02T08:09:50;98993.91;;;18.54;49.80
74680;BME280;63211;48.548;2.704;2024-03-02T08:12:17;98986.25;;;18.51;49.75
74680;BME280;63211;48.548;2.704;2024-03-02T08:14:44;98988.44;;;18.49;49.92
74680;BME280;63211;48.548;2.704;2024-03-02T08:17:11;98984.34;;;18.47;49.88
74680;BME280;63211;48.548;2.704;2024-03-02T08:19:38;98973.16;;;18.43;50.20
74680;BME280;63211;48.548;2.704;2024-03-02T08:22:06;98976.97;;;18.42;49.94
74680;BME280;63211;48.548;2.704;2024-03-02T08:24:33;98977.78;;;18.43;49.95
74680;BME280;63211;48.548;2.704;2024-03-02T08:27:01;98976.97;;;18.42;49.85
74680;BME280;63211;48.548;2.704;2024-03-02T08:29:27;98970.72;;;18.47;49.69
74680;BME280;63211;48.548;2.704;2024-03-02T08:31:54;98909.03;;;18.05;49.95
74680;BME280;63211;48.548;2.704;2024-03-02T08:34:21;98986.81;;;18.53;49.55
74680;BME280;63211;48.548;2.704;2024-03-02T08:36:47;98987.38;;;18.55;49.63
74680;BME280;63211;48.548;2.704;2024-03-02T08:39:15;98971.56;;;18.58;49.24
74680;BME280;63211;48.548;2.704;2024-03-02T08:41:43;98990.63;;;18.58;49.24
74680;BME280;63211;48.548;2.704;2024-03-02T08:44:10;98977.84;;;18.58;49.26
74680;BME280;63211;48.548;2.704;2024-03-02T08:46:37;98975.38;;;18.57;49.11
74680;BME280;63211;48.548;2.704;2024-03-02T08:49:04;98970.19;;;18.55;49.06
74680;BME280;63211;48.548;2.704;2024-03-02T08:51:30;98939.88;;;18.31;49.34
74680;BME280;63211;48.548;2.704;2024-03-02T08:53:58;98962.56;;;18.47;50.25
74680;BME280;63211;48.548;2.704;2024-03-02T08:56:26;98974.34;;;18.68;50.22
74680;BME280;63211;48.548;2.704;2024-03-02T08:58:52;98970.28;;;18.70;50.21
74680;BME280;63211;48.548;2.704;2024-03-02T09:01:19;98970.53;;;18.69;50.25
74680;BME280;63211;48.548;2.704;2024-03-02T09:03:46;98970.53;;;18.69;50.54
74680;BME280;63211;48.548;2.704;2024-03-02T09:06:14;98952.75;;;18.56;50.41
74680;BME280;63211;48.548;2.704;2024-03-02T09:08:42;98962.06;;;18.60;50.20
74680;BME280;63211;48.548;2.704;2024-03-02T09:11:09;98961.72;;;18.51;49.92
74680;BME280;63211;48.548;2.704;2024-03-02T09:13:38;98970.72;;;18.52;49.81
74680;BME280;63211;48.548;2.704;2024-03-02T09:16:05;98968.56;;;18.54;49.62
74680;BME280;63211;48.548;2.704;2024-03-02T09:18:31;98964.44;;;18.51;49.56
74680;BME280;63211;48.548;2.704;2024-03-02T09:20:58;98950.31;;;18.49;49.78
74680;BME280;63211;48.548;2.704;2024-03-02T09:23:24;98956.03;;;18.58;49.62
74680;BME280;63211;48.548;2.704;2024-03-02T09:25:51;98959.63;;;18.64;50.88
74680;BME280;63211;48.548;2.704;2024-03-02T09:28:18;98950.66;;;18.68;49.80
74680;BME280;63211;48.548;2.704;2024-03-02T09:30:46;98936.19;;;18.63;50.21
74680;BME280;63211;48.548;2.704;2024-03-02T09:33:12;98951.19;;;18.70;50.20
74680;BME280;63211;48.548;2.704;2024-03-02T09:35:39;98929.59;;;18.59;50.23
74680;BME280;63211;48.548;2.704;2024-03-02T09:38:05;98932.66;;;18.67;50.14
74680;BME280;63211;48.548;2.704;2024-03-02T09:40:32;98941.91;;;18.61;50.63
74680;BME280;63211;48.548;2.704;2024-03-02T09:42:59;98942.72;;;18.62;50.69
74680;BME280;63211;48.548;2.704;2024-03-02T09:45:26;98939.38;;;18.54;50.74
74680;BME280;63211;48.548;2.704;2024-03-02T09:47:54;98926.31;;;18.57;51.00
74680;BME280;63211;48.548;2.704;2024-03-02T09:50:21;98937.00;;;18.63;51.64
74680;BME280;63211;48.548;2.704;2024-03-02T09:52:48;98929.09;;;18.72;51.18
74680;BME280;63211;48.548;2.704;2024-03-02T09:55:15;98913.56;;;18.67;51.41
74680;BME280;63211;48.548;2.704;2024-03-02T09:57:43;98916.03;;;18.84;51.33
74680;BME280;63211;48.548;2.704;2024-03-02T10:00:10;98912.19;;;18.75;51.31
74680;BME280;63211;48.548;2.704;2024-03-02T10:02:40;98906.47;;;18.71;51.11
74680;BME280;63211;48.548;2.704;2024-03-02T10:05:08;98897.47;;;18.66;50.88
74680;BME280;63211;48.548;2.704;2024-03-02T10:07:35;98899.94;;;18.62;51.03
74680;BME280;63211;48.548;2.704;2024-03-02T10:10:12;98899.09;;;18.62;51.10
74680;BME280;63211;48.548;2.704;2024-03-02T10:12:39;98900.47;;;18.59;50.78
74680;BME280;63211;48.548;2.704;2024-03-02T10:15:06;98893.63;;;18.57;50.59
74680;BME280;63211;48.548;2.704;2024-03-02T10:17:35;98884.91;;;18.49;50.79
74680;BME280;63211;48.548;2.704;2024-03-02T10:20:21;98894.69;;;18.55;50.70
74680;BME280;63211;48.548;2.704;2024-03-02T10:22:48;98885.97;;;18.53;50.61
74680;BME280;63211;48.548;2.704;2024-03-02T10:25:28;98888.69;;;18.53;50.27
74680;BME280;63211;48.548;2.704;2024-03-02T10:27:57;98879.72;;;18.48;50.41
74680;BME280;63211;48.548;2.704;2024-03-02T10:30:23;98887.63;;;18.49;50.56
74680;BME280;63211;48.548;2.704;2024-03-02T10:32:50;98866.06;;;18.38;50.46
74680;BME280;63211;48.548;2.704;2024-03-02T10:35:19;98871.53;;;18.43;50.27
74680;BME280;63211;48.548;2.704;2024-03-02T10:37:47;98872.34;;;18.43;50.33
74680;BME280;63211;48.548;2.704;2024-03-02T10:40:14;98854.31;;;18.32;50.30
74680;BME280;63211;48.548;2.704;2024-03-02T10:42:41;98863.34;;;18.38;50.39
74680;BME280;63211;48.548;2.704;2024-03-02T10:45:09;98855.16;;;18.33;50.17
74680;BME280;63211;48.548;2.704;2024-03-02T10:47:37;98853.25;;;18.38;49.95
74680;BME280;63211;48.548;2.704;2024-03-02T10:50:04;98846.97;;;18.33;50.04
74680;BME280;63211;48.548;2.704;2024-03-02T10:52:35;98856.53;;;18.40;49.76
74680;BME280;63211;48.548;2.704;2024-03-02T10:55:01;98854.91;;;18.39;49.79
74680;BME280;63211;48.548;2.704;2024-03-02T10:57:36;98855.72;;;18.40;49.89
74680;BME280;63211;48.548;2.704;2024-03-02T11:00:08;98849.97;;;18.36;49.98
74680;BME280;63211;48.548;2.704;2024-03-02T11:02:42;98856.81;;;18.39;49.92
74680;BME280;63211;48.548;2.704;2024-03-02T11:05:17;98860.63;;;18.38;50.05
74680;BME280;63211;48.548;2.704;2024-03-02T11:07:47;98835.81;;;18.24;49.23
74680;BME280;63211;48.548;2.704;2024-03-02T11:10:14;98848.34;;;18.35;48.49
74680;BME280;63211;48.548;2.704;2024-03-02T11:12:48;98813.16;;;18.13;47.81
74680;BME280;63211;48.548;2.704;2024-03-02T11:15:18;98841.53;;;18.33;49.03
74680;BME280;63211;48.548;2.704;2024-03-02T11:17:46;98841.78;;;18.31;47.48
74680;BME280;63211;48.548;2.704;2024-03-02T11:20:14;98840.16;;;18.25;47.57
74680;BME280;63211;48.548;2.704;2024-03-02T11:22:41;98841.78;;;18.31;48.29
74680;BME280;63211;48.548;2.704;2024-03-02T11:25:24;98839.63;;;18.33;49.50
74680;BME280;63211;48.548;2.704;2024-03-02T11:28:04;98836.13;;;18.48;49.34
74680;BME280;63211;48.548;2.704;2024-03-02T11:30:52;98829.59;;;18.59;48.67
74680;BME280;63211;48.548;2.704;2024-03-02T11:33:26;98812.13;;;18.55;48.54
74680;BME280;63211;48.548;2.704;2024-03-02T11:35:55;98838.06;;;18.68;48.36
74680;BME280;63211;48.548;2.704;2024-03-02T11:38:22;98832.31;;;18.74;48.84
74680;BME280;63211;48.548;2.704;2024-03-02T11:40:51;98812.72;;;18.62;47.82
74680;BME280;63211;48.548;2.704;2024-03-02T11:43:19;98827.41;;;18.71;47.75
74680;BME280;63211;48.548;2.704;2024-03-02T11:45:46;98825.81;;;18.70;49.56
74680;BME280;63211;48.548;2.704;2024-03-02T11:48:14;98832.88;;;18.66;49.35
74680;BME280;63211;48.548;2.704;2024-03-02T11:50:42;98814.88;;;18.65;49.31
74680;BME280;63211;48.548;2.704;2024-03-02T11:53:10;98808.63;;;18.60;48.34
74680;BME280;63211;48.548;2.704;2024-03-02T11:55:38;98797.44;;;18.61;48.26
74680;BME280;63211;48.548;2.704;2024-03-02T11:58:07;98810.81;;;18.68;48.38
74680;BME280;63211;48.548;2.704;2024-03-02T12:00:34;98811.06;;;18.66;47.71
74680;BME280;63211;48.548;2.704;2024-03-02T12:03:02;98795.28;;;18.68;48.00
74680;BME280;63211;48.548;2.704;2024-03-02T12:05:30;98808.09;;;18.68;47.40
74680;BME280;63211;48.548;2.704;2024-03-02T12:07:57;98800.69;;;18.58;49.03
74680;BME280;63211;48.548;2.704;2024-03-02T12:10:25;98799.06;;;18.62;48.33
74680;BME280;63211;48.548;2.704;2024-03-02T12:12:57;98798.53;;;18.70;48.15
74680;BME280;63211;48.548;2.704;2024-03-02T12:15:27;98783.53;;;18.63;48.37
74680;BME280;63211;48.548;2.704;2024-03-02T12:17:54;98797.41;;;18.71;48.20
74680;BME280;63211;48.548;2.704;2024-03-02T12:20:22;98796.34;;;18.77;48.06
74680;BME280;63211;48.548;2.704;2024-03-02T12:22:50;98795.78;;;18.80;48.19
74680;BME280;63211;48.548;2.704;2024-03-02T12:25:18;98796.06;;;18.84;48.86
74680;BME280;63211;48.548;2.704;2024-03-02T12:27:45;98787.88;;;18.79;49.86
74680;BME280;63211;48.548;2.704;2024-03-02T12:30:12;98785.16;;;18.79;49.44
74680;BME280;63211;48.548;2.704;2024-03-02T12:32:41;98792.53;;;18.83;49.51
74680;BME280;63211;48.548;2.704;2024-03-02T12:35:09;98793.34;;;18.84;49.17
74680;BME280;63211;48.548;2.704;2024-03-02T12:37:43;98788.44;;;18.86;49.57
74680;BME280;63211;48.548;2.704;2024-03-02T12:40:10;98781.34;;;18.85;49.31
74680;BME280;63211;48.548;2.704;2024-03-02T12:42:37;98786.78;;;18.85;49.58
74680;BME280;63211;48.548;2.704;2024-03-02T12:45:05;98783.53;;;18.88;49.08
74680;BME280;63211;48.548;2.704;2024-03-02T12:47:32;98779.16;;;18.87;49.25
74680;BME280;63211;48.548;2.704;2024-03-02T12:50:00;98781.88;;;18.87;49.33
74680;BME280;63211;48.548;2.704;2024-03-02T12:52:27;98789.25;;;18.86;49.42
74680;BME280;63211;48.548;2.704;2024-03-02T12:54:54;98788.69;;;18.84;49.76
74680;BME280;63211;48.548;2.704;2024-03-02T12:57:25;98782.97;;;18.81;49.56
74680;BME280;63211;48.548;2.704;2024-03-02T12:59:52;98780.25;;;18.81;49.52
74680;BME280;63211;48.548;2.704;2024-03-02T13:02:19;98779.69;;;18.79;49.64